Taurus — WDF3127 — position and weather

sailwx.info

Track history (hours):
 
Tides and Currents Weather Stations Pressure Air Temp Water Temp Dewpoint Dewpoint Depression Visibility Wind Speed Wind Dir Waves Ship Positions

Taurus

Owner: San Francisco Bay Area Water Emergency Transportation Authority, San Francisco, CA. More information available from US FCC via Universal Licensing System and Coast Guard Vessel Documentation Center.

Last reported at 2016-Apr-28 02:08 UTC. Time now 2016-Apr-30 14:59 UTC.
Position N 38°06' W 122°16'.

Length 35 m.

Type: Passenger vessel. MMSI: 367436230.

Date/timePositionNaut miles runAvg speedWind from/ knotsBaromVisibWave heightAir tempDewpointWater temp
2016-Apr-28 02:08N 38°06' W 122°16'1 1.1
2016-Apr-28 01:33N 38°06' W 122°16'1515.4
2016-Apr-28 00:34N 37°52' W 122°25'8 7.9
2016-Apr-27 23:33N 38°00' W 122°24'8 0.3
2016-Apr-26 17:31N 38°04' W 122°15'1717.8
2016-Apr-26 16:33N 37°48' W 122°24'0 0.0
2016-Apr-26 15:33N 37°48' W 122°24'0 0.0
2016-Apr-26 02:33N 37°48' W 122°24'0 0.2
2016-Apr-26 01:34N 37°48' W 122°23'6 5.6
2016-Apr-26 00:34N 37°43' W 122°21'7 6.6
2016-Apr-25 23:33N 37°49' W 122°25'0 0.0
2016-Apr-25 22:33N 37°49' W 122°25'0 0.0
2016-Apr-25 21:33N 37°49' W 122°25'0 0.0
2016-Apr-25 20:33N 37°49' W 122°25'0 0.0
2016-Apr-25 19:33N 37°49' W 122°25'0 0.0
2016-Apr-25 18:33N 37°49' W 122°25'1 0.9
2016-Apr-25 17:33N 37°48' W 122°24'0 0.0
2016-Apr-25 16:33N 37°48' W 122°24'8 7.9
2016-Apr-25 15:30N 37°40' W 122°23'9 9.1
2016-Apr-25 14:34N 37°47' W 122°18'  
2016-Apr-23 03:17N 37°48' W 122°24'5 6.8
2016-Apr-23 02:33N 37°47' W 122°18'3 2.8
2016-Apr-23 01:34N 37°45' W 122°17'4 4.3
2016-Apr-23 00:33N 37°48' W 122°21'5 4.8
2016-Apr-22 23:34N 37°43' W 122°21'5 4.9
2016-Apr-22 22:33N 37°48' W 122°23'1 0.6
2016-Apr-22 21:33N 37°48' W 122°24'1 1.0
2016-Apr-22 20:33N 37°49' W 122°25'1 0.9
2016-Apr-22 19:34N 37°49' W 122°24'17 0.9
2016-Apr-22 00:31N 38°05' W 122°15'1919.6
2016-Apr-21 23:34N 37°47' W 122°23'1 1.4
2016-Apr-21 22:34N 37°48' W 122°24'0 0.1
2016-Apr-21 21:33N 37°48' W 122°24'0 0.0
2016-Apr-21 20:33N 37°48' W 122°24'1 1.4
2016-Apr-21 19:33N 37°47' W 122°23'1313.5
2016-Apr-21 18:33N 38°00' W 122°24'9 8.5
2016-Apr-21 17:30N 38°06' W 122°16'1 0.0
2016-Apr-20 17:29N 38°05' W 122°15'1819.8
2016-Apr-20 16:34N 37°48' W 122°24'8 7.8
2016-Apr-20 15:34N 37°41' W 122°22'7 7.4
2016-Apr-20 14:34N 37°48' W 122°18'  
Track history (hours):
 
Tides and Currents Weather Stations Pressure Air Temp Water Temp Dewpoint Dewpoint Depression Visibility Wind Speed Wind Dir Waves Ship Positions

Taurus

Owner: San Francisco Bay Area Water Emergency Transportation Authority, San Francisco, CA. More information available from US FCC via Universal Licensing System and Coast Guard Vessel Documentation Center.

Last reported at 2016-Apr-28 02:08 UTC. Time now 2016-Apr-30 14:59 UTC.
Position N 38°06' W 122°16'.

Length 35 m.

Type: Passenger vessel. MMSI: 367436230.

Date/timePositionNaut miles runAvg speedWind from/ knotsBaromVisibWave heightAir tempDewpointWater temp
2016-Apr-28 02:08N 38°06' W 122°16'1 1.1
2016-Apr-28 01:33N 38°06' W 122°16'1515.4
2016-Apr-28 00:34N 37°52' W 122°25'8 7.9
2016-Apr-27 23:33N 38°00' W 122°24'8 0.3
2016-Apr-26 17:31N 38°04' W 122°15'1717.8
2016-Apr-26 16:33N 37°48' W 122°24'0 0.0
2016-Apr-26 15:33N 37°48' W 122°24'0 0.0
2016-Apr-26 02:33N 37°48' W 122°24'0 0.2
2016-Apr-26 01:34N 37°48' W 122°23'6 5.6
2016-Apr-26 00:34N 37°43' W 122°21'7 6.6
2016-Apr-25 23:33N 37°49' W 122°25'0 0.0
2016-Apr-25 22:33N 37°49' W 122°25'0 0.0
2016-Apr-25 21:33N 37°49' W 122°25'0 0.0
2016-Apr-25 20:33N 37°49' W 122°25'0 0.0
2016-Apr-25 19:33N 37°49' W 122°25'0 0.0
2016-Apr-25 18:33N 37°49' W 122°25'1 0.9
2016-Apr-25 17:33N 37°48' W 122°24'0 0.0
2016-Apr-25 16:33N 37°48' W 122°24'8 7.9
2016-Apr-25 15:30N 37°40' W 122°23'9 9.1
2016-Apr-25 14:34N 37°47' W 122°18'  
2016-Apr-23 03:17N 37°48' W 122°24'5 6.8
2016-Apr-23 02:33N 37°47' W 122°18'3 2.8
2016-Apr-23 01:34N 37°45' W 122°17'4 4.3
2016-Apr-23 00:33N 37°48' W 122°21'5 4.8
2016-Apr-22 23:34N 37°43' W 122°21'5 4.9
2016-Apr-22 22:33N 37°48' W 122°23'1 0.6
2016-Apr-22 21:33N 37°48' W 122°24'1 1.0
2016-Apr-22 20:33N 37°49' W 122°25'1 0.9
2016-Apr-22 19:34N 37°49' W 122°24'17 0.9
2016-Apr-22 00:31N 38°05' W 122°15'1919.6
2016-Apr-21 23:34N 37°47' W 122°23'1 1.4
2016-Apr-21 22:34N 37°48' W 122°24'0 0.1
2016-Apr-21 21:33N 37°48' W 122°24'0 0.0
2016-Apr-21 20:33N 37°48' W 122°24'1 1.4
2016-Apr-21 19:33N 37°47' W 122°23'1313.5
2016-Apr-21 18:33N 38°00' W 122°24'9 8.5
2016-Apr-21 17:30N 38°06' W 122°16'1 0.0
2016-Apr-20 17:29N 38°05' W 122°15'1819.8
2016-Apr-20 16:34N 37°48' W 122°24'8 7.8
2016-Apr-20 15:34N 37°41' W 122°22'7 7.4
2016-Apr-20 14:34N 37°48' W 122°18'  

Dump ship's entire track history